Time;durP1;ratioP1;P1;durP2;ratioP2;P2;SDS_P1;SDS_P2;PMS_P1;PMS_P2;Temp;Humidity;BMP_temperature;BMP_pressure;BME280_temperature;BME280_humidity;BME280_pressure;Samples;Min_cycle;Max_cycle;Signal;HPM_P1;HPM_P2
2022/08/04 00:00:17;;;;;;;6.97;2.30;;;26.30;99.30;;;;;;4995088;28;20463;-85
2022/08/04 00:02:58;;;;;;;13.77;2.50;;;26.20;99.80;;;;;;4976247;28;20454;-86
2022/08/04 00:05:29;;;;;;;4.90;1.67;;;26.20;99.90;;;;;;4982226;28;20494;-84
2022/08/04 00:08:00;;;;;;;8.90;2.60;;;26.20;99.90;;;;;;4996198;28;20938;-86
2022/08/04 00:10:27;;;;;;;10.43;2.33;;;26.10;99.90;;;;;;5000817;28;20462;-84
2022/08/04 00:12:57;;;;;;;5.80;2.40;;;26.10;99.90;;;;;;4998288;28;20455;-85
2022/08/04 00:15:23;;;;;;;7.53;2.37;;;26.10;99.90;;;;;;4999232;28;20913;-84
2022/08/04 00:17:54;;;;;;;6.73;2.20;;;26.00;99.90;;;;;;4978293;28;20445;-87
2022/08/04 00:20:20;;;;;;;7.10;2.33;;;26.00;99.90;;;;;;4999849;28;20907;-84
2022/08/04 00:22:47;;;;;;;6.13;1.77;;;26.00;99.90;;;;;;4998760;28;20462;-87
2022/08/04 00:25:14;;;;;;;4.30;2.20;;;25.90;99.90;;;;;;5000621;28;20446;-85
2022/08/04 00:27:39;;;;;;;7.30;2.90;;;25.90;99.90;;;;;;4998184;28;20472;-85
2022/08/04 00:30:06;;;;;;;7.23;2.43;;;25.80;99.90;;;;;;4998530;28;20435;-85
2022/08/04 00:32:32;;;;;;;3.63;2.23;;;25.80;99.90;;;;;;5000011;28;20206;-84
2022/08/04 00:34:59;;;;;;;6.73;2.43;;;25.70;99.90;;;;;;4998583;28;20445;-85
2022/08/04 00:37:26;;;;;;;6.70;2.80;;;25.70;99.90;;;;;;4996090;28;20503;-84
2022/08/04 00:39:54;;;;;;;8.17;2.50;;;25.70;99.90;;;;;;4993596;28;20444;-86
2022/08/04 00:42:33;;;;;;;7.90;2.27;;;25.70;99.90;;;;;;4993428;28;20469;-85
2022/08/04 00:45:16;;;;;;;8.60;2.67;;;25.70;99.90;;;;;;4996658;28;20437;-84
2022/08/04 00:48:03;;;;;;;10.77;2.50;;;25.70;99.90;;;;;;4991445;28;20476;-84
2022/08/04 00:50:45;;;;;;;6.83;2.37;;;25.60;99.90;;;;;;4996017;28;20478;-85
2022/08/04 00:53:36;;;;;;;7.67;2.40;;;25.60;99.90;;;;;;4993451;28;20439;-85
2022/08/04 00:56:32;;;;;;;7.23;2.30;;;25.60;99.90;;;;;;4996223;28;20432;-84
2022/08/04 00:59:14;;;;;;;11.73;2.30;;;25.50;99.90;;;;;;4991978;28;20449;-84
2022/08/04 01:01:57;;;;;;;9.00;2.80;;;25.50;99.90;;;;;;4987930;28;20457;-85
2022/08/04 01:04:37;;;;;;;11.17;3.00;;;25.50;99.90;;;;;;4978398;28;20447;-84
2022/08/04 01:07:17;;;;;;;16.67;2.87;;;25.50;99.90;;;;;;4987723;28;20619;-83
2022/08/04 01:10:03;;;;;;;7.20;2.43;;;25.40;99.90;;;;;;4994576;28;20427;-85
2022/08/04 01:12:53;;;;;;;12.43;2.80;;;25.40;99.90;;;;;;4993524;28;20461;-85
2022/08/04 01:15:56;;;;;;;7.30;2.33;;;25.30;99.90;;;;;;4975925;28;20437;-83
2022/08/04 01:18:33;;;;;;;4.13;2.10;;;25.30;99.90;;;;;;4987888;28;20467;-84
2022/08/04 01:21:21;;;;;;;7.57;2.27;;;25.30;99.90;;;;;;4989219;28;20456;-83
2022/08/04 01:24:18;;;;;;;6.23;2.80;;;25.30;99.90;;;;;;4991445;28;20864;-86
2022/08/04 01:27:04;;;;;;;10.03;3.10;;;25.20;99.90;;;;;;4990891;28;21102;-83
2022/08/04 01:29:46;;;;;;;6.33;2.20;;;25.20;99.90;;;;;;4987386;28;20431;-83
2022/08/04 01:32:35;;;;;;;5.87;2.57;;;25.10;99.90;;;;;;4987863;28;20459;-83
2022/08/04 01:35:28;;;;;;;9.50;2.17;;;25.10;99.90;;;;;;4992127;28;20539;-83
2022/08/04 01:38:23;;;;;;;4.70;1.70;;;25.10;99.90;;;;;;4969549;28;20995;-84
2022/08/04 01:40:53;;;;;;;6.30;2.50;;;25.10;99.90;;;;;;4990604;28;20460;-83
2022/08/04 01:43:20;;;;;;;7.50;2.17;;;25.10;99.90;;;;;;4976190;28;20495;-83
2022/08/04 01:45:50;;;;;;;9.27;2.73;;;25.00;99.90;;;;;;4994177;28;20551;-83
2022/08/04 01:48:21;;;;;;;4.93;2.73;;;25.00;99.90;;;;;;4990948;28;20432;-83
2022/08/04 01:50:49;;;;;;;6.93;2.97;;;25.00;99.90;;;;;;4993616;28;20463;-86
2022/08/04 01:53:14;;;;;;;11.93;2.07;;;24.90;99.90;;;;;;4971030;28;21008;-84
2022/08/04 01:55:41;;;;;;;7.10;2.23;;;24.90;99.90;;;;;;4989347;28;20472;-83
2022/08/04 01:58:09;;;;;;;5.57;2.23;;;24.90;99.90;;;;;;4987583;28;20185;-83
2022/08/04 02:00:39;;;;;;;7.30;2.47;;;24.90;99.90;;;;;;4989567;28;20961;-84
2022/08/04 02:03:05;;;;;;;8.43;2.33;;;24.90;99.90;;;;;;4987431;28;20536;-84
2022/08/04 02:05:30;;;;;;;7.53;2.53;;;24.90;99.90;;;;;;4990715;28;20616;-83
2022/08/04 02:08:19;;;;;;;9.50;2.70;;;24.80;99.90;;;;;;4994544;28;20249;-85
2022/08/04 02:11:17;;;;;;;6.97;2.43;;;24.80;99.90;;;;;;4999152;28;20203;-84
2022/08/04 02:14:03;;;;;;;8.47;2.77;;;24.80;99.90;;;;;;4996757;28;20434;-86
2022/08/04 02:16:49;;;;;;;7.80;2.70;;;24.80;99.90;;;;;;4991192;28;20462;-84
2022/08/04 02:19:31;;;;;;;10.00;2.20;;;24.70;99.90;;;;;;4996480;28;20448;-86
2022/08/04 02:22:08;;;;;;;10.90;2.33;;;24.70;99.90;;;;;;4992311;28;20475;-83
2022/08/04 02:24:44;;;;;;;9.63;2.77;;;24.60;99.90;;;;;;4995291;28;21034;-85
2022/08/04 02:27:15;;;;;;;7.83;1.80;;;24.60;99.90;;;;;;4986171;28;20480;-85
2022/08/04 02:29:52;;;;;;;4.43;2.13;;;24.50;99.90;;;;;;4996745;28;20434;-84
2022/08/04 02:32:26;;;;;;;8.70;3.00;;;24.50;99.90;;;;;;4972485;28;20457;-83
2022/08/04 02:35:09;;;;;;;6.20;2.50;;;24.50;99.90;;;;;;4992955;28;20434;-86
2022/08/04 02:37:35;;;;;;;9.60;3.03;;;24.50;99.90;;;;;;4990932;28;20520;-83
2022/08/04 02:40:04;;;;;;;6.27;2.47;;;24.50;99.90;;;;;;4991348;28;20547;-85
2022/08/04 02:42:31;;;;;;;6.27;2.10;;;24.40;99.90;;;;;;4991150;28;20246;-84
2022/08/04 02:44:59;;;;;;;13.33;2.50;;;24.30;99.90;;;;;;4993812;28;20445;-84
2022/08/04 02:47:27;;;;;;;5.57;2.13;;;24.20;99.90;;;;;;4992394;28;20436;-84
2022/08/04 02:49:55;;;;;;;7.30;2.63;;;24.20;99.90;;;;;;4995433;28;20448;-84
2022/08/04 02:52:22;;;;;;;12.43;2.73;;;24.20;99.90;;;;;;4989816;28;20452;-84
2022/08/04 02:54:52;;;;;;;8.60;2.97;;;24.10;99.90;;;;;;4994336;28;20465;-87
2022/08/04 02:57:18;;;;;;;8.97;3.70;;;24.10;99.90;;;;;;4991127;28;20467;-84
2022/08/04 03:00:00;;;;;;;8.63;2.77;;;24.10;99.90;;;;;;4995004;28;20437;-85
2022/08/04 03:02:35;;;;;;;12.23;3.10;;;24.10;99.90;;;;;;4993706;28;20822;-84
2022/08/04 03:05:10;;;;;;;10.20;3.10;;;24.00;99.90;;;;;;4993862;28;20446;-84
2022/08/04 03:08:03;;;;;;;8.97;2.53;;;23.90;99.90;;;;;;4990933;28;20461;-84
2022/08/04 03:11:07;;;;;;;11.30;3.17;;;23.90;99.90;;;;;;4996124;28;20466;-84
2022/08/04 03:13:38;;;;;;;8.77;2.70;;;23.90;99.90;;;;;;4993162;28;20441;-84
2022/08/04 03:16:53;;;;;;;6.87;3.00;;;23.90;99.90;;;;;;4994961;28;20492;-84
2022/08/04 03:19:28;;;;;;;5.70;2.43;;;23.90;99.90;;;;;;4995858;28;20441;-84
2022/08/04 03:22:12;;;;;;;8.03;2.87;;;23.90;99.90;;;;;;4988642;28;20461;-84
2022/08/04 03:25:10;;;;;;;10.23;2.37;;;23.90;99.90;;;;;;4991228;28;20453;-84
2022/08/04 03:28:13;;;;;;;8.43;3.33;;;23.80;99.90;;;;;;4993129;28;20444;-83
2022/08/04 03:31:05;;;;;;;8.33;2.87;;;23.80;99.90;;;;;;4990338;28;20435;-85
2022/08/04 03:33:41;;;;;;;5.10;2.87;;;23.70;99.90;;;;;;4978458;28;20467;-85
2022/08/04 03:36:26;;;;;;;10.60;2.87;;;23.70;99.90;;;;;;4975910;28;20438;-85
2022/08/04 03:38:54;;;;;;;7.13;3.27;;;23.70;99.90;;;;;;4995005;28;20850;-86
2022/08/04 03:41:47;;;;;;;10.33;3.30;;;23.70;99.90;;;;;;4992875;28;20531;-85
2022/08/04 03:44:43;;;;;;;8.43;2.50;;;23.70;99.90;;;;;;4996712;28;20465;-83
2022/08/04 03:47:34;;;;;;;13.30;2.90;;;23.60;99.90;;;;;;4991352;28;20618;-84
2022/08/04 03:50:22;;;;;;;5.87;2.90;;;23.60;99.90;;;;;;4995434;28;20476;-84
2022/08/04 03:53:24;;;;;;;8.27;3.67;;;23.60;99.90;;;;;;4993532;28;20464;-86
2022/08/04 03:56:18;;;;;;;10.07;3.17;;;23.60;99.90;;;;;;4998215;28;20449;-84
2022/08/04 03:59:34;;;;;;;12.77;3.97;;;23.50;99.90;;;;;;4998231;28;21035;-83
2022/08/04 04:02:22;;;;;;;14.40;3.20;;;23.50;99.90;;;;;;4940720;28;20547;-83
2022/08/04 04:05:17;;;;;;;13.00;3.00;;;23.50;99.90;;;;;;4996379;28;22383;-84
2022/08/04 04:08:19;;;;;;;10.83;3.77;;;23.50;99.90;;;;;;4977368;28;20983;-84
2022/08/04 04:11:03;;;;;;;12.53;3.60;;;23.50;99.90;;;;;;4996359;28;20577;-84
2022/08/04 04:13:56;;;;;;;13.33;3.33;;;23.50;99.90;;;;;;4992859;28;20458;-83
2022/08/04 04:16:31;;;;;;;13.20;3.93;;;23.50;99.90;;;;;;4977333;28;20478;-84
2022/08/04 04:19:21;;;;;;;15.70;3.10;;;23.50;99.90;;;;;;4997054;28;20554;-84
2022/08/04 04:22:12;;;;;;;13.47;3.97;;;23.50;99.90;;;;;;4994460;28;20871;-85
2022/08/04 04:25:02;;;;;;;15.37;4.40;;;23.50;99.90;;;;;;4995224;28;20833;-84
2022/08/04 04:28:00;;;;;;;14.60;3.67;;;23.50;99.90;;;;;;4994285;28;20450;-83
2022/08/04 04:30:42;;;;;;;10.37;3.43;;;23.50;99.90;;;;;;5000326;28;20441;-85
2022/08/04 04:33:38;;;;;;;9.87;3.37;;;23.50;99.90;;;;;;4987421;28;20441;-84
2022/08/04 04:36:15;;;;;;;15.73;4.00;;;23.50;99.90;;;;;;4991841;28;20438;-83
2022/08/04 04:38:47;;;;;;;9.70;4.33;;;23.50;99.90;;;;;;4983388;28;20423;-83
2022/08/04 04:41:24;;;;;;;9.03;3.87;;;23.50;99.90;;;;;;4986009;28;20456;-84
2022/08/04 04:44:16;;;;;;;10.80;4.73;;;23.60;99.90;;;;;;4980881;28;20456;-84
2022/08/04 04:46:49;;;;;;;15.37;4.00;;;23.60;99.90;;;;;;4992823;28;20553;-84
2022/08/04 04:49:36;;;;;;;13.23;3.90;;;23.60;99.90;;;;;;4984398;28;20441;-84
2022/08/04 04:52:29;;;;;;;9.67;4.70;;;23.70;99.90;;;;;;4966947;28;20970;-83
2022/08/04 04:55:17;;;;;;;13.27;3.70;;;23.70;99.90;;;;;;4987685;28;20430;-85
2022/08/04 04:57:45;;;;;;;8.53;3.70;;;23.70;99.90;;;;;;4994955;28;20441;-84
2022/08/04 05:00:12;;;;;;;14.90;4.00;;;23.70;99.90;;;;;;4989504;28;21186;-83
2022/08/04 05:03:00;;;;;;;11.80;4.40;;;23.70;99.90;;;;;;4994064;28;20457;-85
2022/08/04 05:05:52;;;;;;;11.83;4.03;;;23.80;99.90;;;;;;4992372;28;22361;-84
2022/08/04 05:09:01;;;;;;;11.27;4.27;;;23.90;99.90;;;;;;4992945;28;20426;-84
2022/08/04 05:11:44;;;;;;;13.00;3.87;;;23.90;99.90;;;;;;4990605;28;20879;-85
2022/08/04 05:14:27;;;;;;;13.10;4.53;;;24.00;99.90;;;;;;4993873;28;20423;-84
2022/08/04 05:16:58;;;;;;;7.07;3.83;;;24.00;99.90;;;;;;4994452;28;20450;-83
2022/08/04 05:19:43;;;;;;;14.20;3.60;;;24.10;99.90;;;;;;4979576;28;20446;-84
2022/08/04 05:22:28;;;;;;;11.13;3.50;;;24.20;99.90;;;;;;4997986;28;20450;-85
2022/08/04 05:25:15;;;;;;;12.00;3.67;;;24.30;99.90;;;;;;4990076;28;20456;-87
2022/08/04 05:27:47;;;;;;;12.53;3.90;;;24.30;99.90;;;;;;4993695;28;20449;-86
2022/08/04 05:30:13;;;;;;;11.83;3.97;;;24.40;99.90;;;;;;4996511;28;20887;-85
2022/08/04 05:33:03;;;;;;;12.43;3.90;;;24.40;99.90;;;;;;4980990;28;20461;-86
2022/08/04 05:35:34;;;;;;;12.47;4.03;;;24.30;99.90;;;;;;4981293;28;20192;-87
2022/08/04 05:38:02;;;;;;;15.30;3.90;;;24.30;99.90;;;;;;4991132;28;20440;-87
2022/08/04 05:40:28;;;;;;;15.07;3.50;;;24.40;99.90;;;;;;4994931;28;20527;-85
2022/08/04 05:42:55;;;;;;;16.33;4.93;;;24.40;99.90;;;;;;4993143;28;20510;-88
2022/08/04 05:45:22;;;;;;;13.17;3.60;;;24.40;99.90;;;;;;4993290;28;20860;-85
2022/08/04 05:47:50;;;;;;;6.60;3.63;;;25.20;99.90;;;;;;4992412;28;20446;-87
2022/08/04 05:50:17;;;;;;;7.77;3.30;;;28.50;99.90;;;;;;4989435;28;20438;-87
2022/08/04 05:52:43;;;;;;;11.20;3.20;;;31.70;99.90;;;;;;4987895;28;20813;-86
2022/08/04 05:55:11;;;;;;;10.47;3.10;;;34.80;99.90;;;;;;4988757;28;20804;-87
2022/08/04 05:57:40;;;;;;;13.83;3.23;;;38.00;99.90;;;;;;4982935;28;20803;-85
2022/08/04 06:00:07;;;;;;;9.90;2.93;;;40.60;99.90;;;;;;4994900;28;20844;-87
2022/08/04 06:02:34;;;;;;;8.47;2.70;;;42.00;99.90;;;;;;4968930;28;21041;-85
2022/08/04 06:05:01;;;;;;;5.40;2.30;;;44.00;99.90;;;;;;4974523;28;20432;-86
2022/08/04 06:07:27;;;;;;;6.27;2.47;;;46.00;99.90;;;;;;4981184;28;20459;-86
2022/08/04 06:09:53;;;;;;;12.10;2.50;;;47.70;99.90;;;;;;4990776;28;20941;-86
2022/08/04 06:12:31;;;;;;;10.03;2.60;;;49.20;95.30;;;;;;4985600;28;20885;-86
2022/08/04 06:14:58;;;;;;;9.23;3.33;;;50.00;88.00;;;;;;4993081;28;20438;-83
2022/08/04 06:17:32;;;;;;;11.17;3.70;;;50.90;74.90;;;;;;4972345;28;20430;-85
2022/08/04 06:19:59;;;;;;;10.67;3.40;;;51.50;81.10;;;;;;4987766;28;20504;-83
2022/08/04 06:22:29;;;;;;;9.70;3.50;;;52.40;56.60;;;;;;4956805;28;20292;-85
2022/08/04 06:24:59;;;;;;;6.00;2.90;;;54.00;51.90;;;;;;4973810;28;20183;-83
2022/08/04 06:27:27;;;;;;;7.00;3.00;;;55.80;48.70;;;;;;4985375;28;20195;-84
2022/08/04 06:29:57;;;;;;;10.05;3.08;;;57.60;45.20;;;;;;4990286;28;20205;-84
2022/08/04 06:32:35;;;;;;;9.75;3.25;;;59.10;41.60;;;;;;4989406;28;20195;-84
2022/08/04 06:35:05;;;;;;;11.80;2.95;;;59.40;36.50;;;;;;4989082;28;20187;-84
2022/08/04 06:37:32;;;;;;;4.90;2.90;;;60.40;32.80;;;;;;4967813;28;20189;-84
2022/08/04 06:40:00;;;;;;;9.07;2.85;;;61.70;32.00;;;;;;4960431;28;20182;-84
2022/08/04 06:42:32;;;;;;;6.35;2.67;;;62.80;30.00;;;;;;4971932;28;20214;-85
2022/08/04 06:44:59;;;;;;;12.38;3.00;;;63.60;28.40;;;;;;4985153;28;20265;-84
2022/08/04 06:47:28;;;;;;;9.90;2.55;;;64.20;27.50;;;;;;4960734;28;20227;-86
2022/08/04 06:49:55;;;;;;;9.13;1.90;;;64.60;26.50;;;;;;4984074;28;20183;-84
2022/08/04 06:52:21;;;;;;;11.35;2.47;;;64.80;24.10;;;;;;4960441;28;20206;-84
2022/08/04 06:54:49;;;;;;;3.35;2.10;;;64.60;22.00;;;;;;4969230;28;20182;-86
2022/08/04 06:57:19;;;;;;;7.15;2.30;;;62.90;16.80;;;;;;4966374;28;20278;-85
2022/08/04 06:59:48;;;;;;;6.65;2.65;;;62.10;14.60;;;;;;4982455;28;20198;-84
2022/08/04 07:02:15;;;;;;;6.45;2.63;;;63.10;15.80;;;;;;4979815;28;20289;-85
2022/08/04 07:04:45;;;;;;;12.27;2.90;;;64.10;17.60;;;;;;4986856;28;20283;-88
2022/08/04 07:07:11;;;;;;;6.97;2.28;;;64.40;17.20;;;;;;4981032;28;20257;-86
2022/08/04 07:09:38;;;;;;;6.05;2.63;;;61.60;10.40;;;;;;4981765;28;20194;-85
2022/08/04 07:12:06;;;;;;;7.15;2.25;;;60.30;8.20;;;;;;4984971;28;20302;-85
2022/08/04 07:14:34;;;;;;;10.10;2.47;;;58.00;4.30;;;;;;4985008;28;20609;-85
2022/08/04 07:17:38;;;;;;;8.10;2.60;;;58.20;5.40;;;;;;4985058;28;20179;-84
2022/08/04 07:20:05;;;;;;;7.97;2.03;;;58.10;5.20;;;;;;4990900;28;20895;-85
2022/08/04 07:22:31;;;;;;;8.77;2.67;;;59.20;7.80;;;;;;4985553;28;20635;-85
2022/08/04 07:25:00;;;;;;;6.65;3.00;;;60.50;9.50;;;;;;4986151;28;20223;-85
2022/08/04 07:27:26;;;;;;;6.30;2.30;;;61.00;10.40;;;;;;4988609;28;20583;-85
2022/08/04 07:29:53;;;;;;;2.72;1.90;;;61.50;10.20;;;;;;4990536;28;20202;-85
2022/08/04 07:32:22;;;;;;;8.23;2.20;;;61.40;9.10;;;;;;4989472;28;20679;-86
2022/08/04 07:34:49;;;;;;;8.35;2.10;;;62.10;9.80;;;;;;4992326;28;20600;-86
2022/08/04 07:37:15;;;;;;;7.15;2.10;;;62.30;9.60;;;;;;4968574;28;20849;-85
2022/08/04 07:39:44;;;;;;;6.40;2.33;;;63.00;9.90;;;;;;4988432;28;20183;-85
2022/08/04 07:42:10;;;;;;;5.40;2.22;;;63.60;10.80;;;;;;4989478;28;20226;-86
2022/08/04 07:44:36;;;;;;;5.57;2.30;;;64.30;11.80;;;;;;4992810;28;20198;-87
2022/08/04 07:47:05;;;;;;;6.40;2.45;;;64.20;11.00;;;;;;4987873;28;20223;-88
2022/08/04 07:49:37;;;;;;;11.38;2.80;;;63.50;8.70;;;;;;4997368;28;20198;-87
2022/08/04 07:52:03;;;;;;;5.30;1.83;;;63.20;7.10;;;;;;4988414;28;20225;-86
2022/08/04 07:54:29;;;;;;;7.05;2.50;;;63.70;8.50;;;;;;4991267;28;20182;-87
2022/08/04 07:56:56;;;;;;;7.75;2.40;;;63.20;7.10;;;;;;4989463;28;20191;-87
2022/08/04 07:59:21;;;;;;;11.57;1.92;;;62.50;5.00;;;;;;4992179;28;20643;-87
2022/08/04 08:01:47;;;;;;;6.88;2.05;;;61.10;1.70;;;;;;4972584;28;20207;-88
2022/08/04 08:04:13;;;;;;;5.05;2.15;;;61.20;3.20;;;;;;4988704;28;20190;-88
2022/08/04 08:06:40;;;;;;;7.18;1.90;;;61.50;2.70;;;;;;4991104;28;20256;-87
2022/08/04 08:09:11;;;;;;;3.85;1.75;;;61.30;2.20;;;;;;4988497;28;20202;-86
2022/08/04 08:11:37;;;;;;;7.13;1.70;;;59.40;1.00;;;;;;4971222;28;20710;-86
2022/08/04 08:14:04;;;;;;;6.17;1.90;;;56.60;4.10;;;;;;4973715;28;20206;-86
2022/08/04 08:16:32;;;;;;;6.80;1.67;;;53.80;1.00;;;;;;4988621;28;20574;-84
2022/08/04 08:18:59;;;;;;;13.47;2.40;;;51.50;1.00;;;;;;4971916;28;20447;-85
2022/08/04 08:21:25;;;;;;;10.00;1.90;;;49.30;1.00;;;;;;4989863;28;20544;-88
2022/08/04 08:23:51;;;;;;;10.07;2.20;;;47.70;1.00;;;;;;4991545;28;20530;-85
2022/08/04 08:26:17;;;;;;;6.60;2.30;;;46.70;1.00;;;;;;4995868;28;20301;-86
2022/08/04 08:28:43;;;;;;;10.80;2.60;;;45.70;1.00;;;;;;4988291;28;20246;-85
2022/08/04 08:31:09;;;;;;;6.77;1.90;;;44.60;1.00;;;;;;4972970;28;20199;-85
2022/08/04 08:33:35;;;;;;;3.30;2.00;;;43.80;1.00;;;;;;4976671;28;20521;-84
2022/08/04 08:36:11;;;;;;;5.37;2.30;;;43.10;1.00;;;;;;4996874;28;20558;-86
2022/08/04 08:39:15;;;;;;;10.87;2.00;;;44.60;1.00;;;;;;4973099;28;20196;-85
2022/08/04 08:41:50;;;;;;;3.00;1.70;;;46.70;3.10;;;;;;4969530;28;20474;-85
2022/08/04 08:45:06;;;;;;;5.40;2.23;;;47.60;4.00;;;;;;4977070;28;21011;-84
2022/08/04 08:48:09;;;;;;;6.27;2.10;;;48.10;4.80;;;;;;4894211;29;20879;-86
2022/08/04 08:50:50;;;;;;;5.23;2.10;;;49.80;7.50;;;;;;4892584;29;20442;-85
2022/08/04 08:53:42;;;;;;;4.53;1.73;;;50.90;8.50;;;;;;4979582;28;20532;-88
2022/08/04 08:56:29;;;;;;;4.97;2.67;;;51.90;9.20;;;;;;4988284;28;20902;-85
2022/08/04 08:59:36;;;;;;;3.57;2.20;;;52.60;9.00;;;;;;4987177;28;20922;-86
2022/08/04 09:02:20;;;;;;;6.90;2.10;;;52.40;6.80;;;;;;4941499;28;20472;-85
2022/08/04 09:05:23;;;;;;;5.97;2.70;;;53.40;8.20;;;;;;4987683;28;20934;-85
2022/08/04 09:07:55;;;;;;;4.47;2.05;;;54.80;9.60;;;;;;4986202;28;20191;-86
2022/08/04 09:10:49;;;;;;;3.72;1.75;;;55.70;9.20;;;;;;4992925;28;20175;-85
2022/08/04 09:13:29;;;;;;;4.18;1.75;;;56.10;8.30;;;;;;4986788;28;20285;-85
2022/08/04 09:16:10;;;;;;;2.75;1.65;;;56.90;9.10;;;;;;4973164;28;20198;-86
2022/08/04 09:18:53;;;;;;;5.22;1.65;;;57.70;8.10;;;;;;4991723;28;20659;-86
2022/08/04 09:21:43;;;;;;;4.10;1.60;;;57.40;6.20;;;;;;4989790;28;20736;-86
2022/08/04 09:24:34;;;;;;;4.60;1.70;;;54.70;1.10;;;;;;4973715;28;20182;-86
2022/08/04 09:27:02;;;;;;;4.27;1.50;;;52.40;1.00;;;;;;4977355;28;20462;-85
2022/08/04 09:29:51;;;;;;;3.77;1.67;;;50.50;1.00;;;;;;4992432;28;20440;-85
2022/08/04 09:32:25;;;;;;;4.47;1.83;;;49.40;1.00;;;;;;4976904;28;20529;-87
2022/08/04 09:35:15;;;;;;;10.53;2.10;;;48.70;1.00;;;;;;4985889;28;20812;-84
2022/08/04 09:37:44;;;;;;;11.47;2.20;;;48.00;1.00;;;;;;4983837;28;20431;-87
2022/08/04 09:40:26;;;;;;;4.17;1.70;;;47.40;1.00;;;;;;4992358;28;20422;-84
2022/08/04 09:43:29;;;;;;;5.70;1.80;;;46.80;1.00;;;;;;4977496;28;20466;-87
2022/08/04 09:46:31;;;;;;;10.60;2.30;;;46.30;1.00;;;;;;4995345;28;20466;-84
2022/08/04 09:49:04;;;;;;;7.50;2.13;;;45.60;1.00;;;;;;4975990;28;20438;-84
2022/08/04 09:51:57;;;;;;;6.83;2.37;;;45.00;1.00;;;;;;4973573;28;20524;-84
2022/08/04 09:54:30;;;;;;;8.60;1.97;;;44.30;1.00;;;;;;4995990;28;20984;-83
2022/08/04 09:57:15;;;;;;;3.47;2.00;;;43.60;1.00;;;;;;4989665;28;20908;-85
2022/08/04 09:59:56;;;;;;;3.30;1.77;;;43.00;1.00;;;;;;4990535;28;20478;-86
2022/08/04 10:02:23;;;;;;;6.73;2.00;;;42.30;1.00;;;;;;4984770;28;20463;-86
2022/08/04 10:04:52;;;;;;;4.43;1.80;;;41.60;1.00;;;;;;4990567;28;20454;-82
2022/08/04 10:07:35;;;;;;;3.70;2.00;;;41.20;1.00;;;;;;4985350;28;20513;-84
2022/08/04 10:10:27;;;;;;;3.17;2.07;;;40.90;1.00;;;;;;4994641;28;20450;-83
2022/08/04 10:13:17;;;;;;;7.50;1.90;;;40.70;1.00;;;;;;4990639;28;20675;-86
2022/08/04 10:15:59;;;;;;;5.90;1.67;;;40.70;1.00;;;;;;4993697;28;20501;-84
2022/08/04 10:18:54;;;;;;;5.80;2.10;;;40.70;2.30;;;;;;4990210;28;20435;-84
2022/08/04 10:21:45;;;;;;;4.03;2.20;;;40.50;3.40;;;;;;4993464;28;20493;-86
2022/08/04 10:24:28;;;;;;;10.43;2.20;;;40.20;3.00;;;;;;4973743;28;20450;-86
2022/08/04 10:27:06;;;;;;;6.30;1.90;;;40.10;4.20;;;;;;4985603;28;21062;-86
2022/08/04 10:29:35;;;;;;;6.73;1.80;;;42.20;8.80;;;;;;4988535;28;20435;-88
2022/08/04 10:32:23;;;;;;;5.97;1.53;;;44.10;12.00;;;;;;4986653;28;20447;-85
2022/08/04 10:34:57;;;;;;;12.10;1.80;;;45.50;22.90;;;;;;4991391;28;20462;-84
2022/08/04 10:37:28;;;;;;;3.17;1.90;;;45.60;12.00;;;;;;4986681;28;20457;-86
2022/08/04 10:42:58;;;;;;;3.10;1.90;;;44.20;7.60;;;;;;4990133;28;20477;-85
2022/08/04 10:45:31;;;;;;;11.00;2.10;;;43.40;5.90;;;;;;4972282;28;20994;-87
2022/08/04 10:48:35;;;;;;;5.40;1.80;;;43.30;6.80;;;;;;4972838;28;20442;-86
2022/08/04 10:51:21;;;;;;;4.60;1.60;;;42.60;5.70;;;;;;4989939;28;20454;-85
2022/08/04 10:53:57;;;;;;;5.27;1.80;;;41.70;4.50;;;;;;4975392;28;20438;-86
2022/08/04 10:56:37;;;;;;;6.03;2.40;;;40.70;2.90;;;;;;4991477;28;20460;-84
2022/08/04 10:59:17;;;;;;;6.23;2.40;;;39.80;3.00;;;;;;4992187;28;20814;-84
2022/08/04 11:01:47;;;;;;;4.80;2.37;;;39.10;2.70;;;;;;4985026;28;20455;-86
2022/08/04 11:04:36;;;;;;;4.40;1.70;;;38.40;4.20;;;;;;4992085;28;20444;-85
2022/08/04 11:07:02;;;;;;;8.80;2.20;;;38.10;5.60;;;;;;4973144;28;20943;-85
2022/08/04 11:09:29;;;;;;;6.47;2.17;;;37.80;6.50;;;;;;4989929;28;20935;-85
2022/08/04 11:12:01;;;;;;;12.30;2.50;;;37.40;7.80;;;;;;4987246;28;21052;-86
2022/08/04 11:14:35;;;;;;;6.40;1.97;;;37.10;7.50;;;;;;4994662;28;20426;-83
2022/08/04 11:17:06;;;;;;;6.70;1.90;;;36.70;7.50;;;;;;4976762;28;20442;-83
2022/08/04 11:19:35;;;;;;;8.33;2.20;;;36.40;7.80;;;;;;4993641;28;20437;-86
2022/08/04 11:22:10;;;;;;;6.83;2.23;;;35.90;7.70;;;;;;4991304;28;20541;-85
2022/08/04 11:24:41;;;;;;;4.80;2.17;;;35.60;8.90;;;;;;4978485;28;20441;-84
2022/08/04 11:27:18;;;;;;;3.73;1.97;;;35.30;9.30;;;;;;4987948;28;20466;-83
2022/08/04 11:30:05;;;;;;;5.53;2.10;;;35.20;9.90;;;;;;4994033;28;20459;-83
2022/08/04 11:33:05;;;;;;;4.90;2.30;;;35.20;11.50;;;;;;4972162;28;20462;-85
2022/08/04 11:35:43;;;;;;;4.30;2.10;;;35.30;12.90;;;;;;4993108;28;20522;-84
2022/08/04 11:38:20;;;;;;;6.43;2.20;;;35.50;14.50;;;;;;4989404;28;22071;-84
2022/08/04 11:40:50;;;;;;;3.80;2.07;;;35.70;16.40;;;;;;4992394;28;20442;-84
2022/08/04 11:43:25;;;;;;;4.77;2.70;;;35.90;17.80;;;;;;4976245;28;20454;-85
2022/08/04 11:45:55;;;;;;;7.43;2.67;;;36.10;19.00;;;;;;4993758;28;20816;-83
2022/08/04 11:48:33;;;;;;;5.40;2.77;;;36.30;20.00;;;;;;4991346;28;20501;-82
2022/08/04 11:51:01;;;;;;;9.90;2.63;;;36.60;20.50;;;;;;4992635;28;20463;-84
2022/08/04 11:53:28;;;;;;;9.53;2.73;;;36.70;22.00;;;;;;4989763;28;20473;-85
2022/08/04 11:55:59;;;;;;;9.33;2.50;;;36.90;23.50;;;;;;4989089;28;20446;-85
2022/08/04 11:58:24;;;;;;;4.87;2.23;;;36.70;22.70;;;;;;4987609;28;20438;-86
2022/08/04 12:00:58;;;;;;;7.23;2.40;;;36.40;22.80;;;;;;4991932;28;20524;-85
2022/08/04 12:03:42;;;;;;;4.33;2.40;;;36.30;23.00;;;;;;4992148;28;20196;-84
2022/08/04 12:06:24;;;;;;;7.23;2.73;;;36.40;23.90;;;;;;4982927;28;21001;-85
2022/08/04 12:09:10;;;;;;;5.53;2.20;;;37.10;36.90;;;;;;4989639;28;20439;-85
2022/08/04 12:11:45;;;;;;;7.60;2.20;;;38.40;28.10;;;;;;4987600;28;20485;-85
2022/08/04 12:14:35;;;;;;;7.27;2.27;;;39.50;30.20;;;;;;4994790;28;20511;-83
2022/08/04 12:17:03;;;;;;;3.40;1.60;;;40.20;30.00;;;;;;4990319;28;20447;-85
2022/08/04 12:19:49;;;;;;;4.10;2.10;;;40.30;28.00;;;;;;4995672;28;20442;-86
2022/08/04 12:22:18;;;;;;;5.40;2.17;;;40.10;25.80;;;;;;4990078;28;20466;-85
2022/08/04 12:24:50;;;;;;;8.03;1.83;;;39.90;24.40;;;;;;4993823;28;20534;-84
2022/08/04 12:27:20;;;;;;;6.07;2.17;;;39.80;23.20;;;;;;4988398;28;20482;-84
2022/08/04 12:29:46;;;;;;;5.87;2.00;;;39.60;22.30;;;;;;4991061;28;20443;-85
2022/08/04 12:32:41;;;;;;;6.63;2.50;;;39.20;21.10;;;;;;4987279;28;20875;-86
2022/08/04 12:35:37;;;;;;;5.27;2.13;;;38.80;19.80;;;;;;4990576;28;20442;-85
2022/08/04 12:38:05;;;;;;;2.90;2.03;;;38.90;30.40;;;;;;4984418;28;21288;-86
2022/08/04 12:40:47;;;;;;;7.63;1.90;;;38.90;20.50;;;;;;4994383;28;20915;-85
2022/08/04 12:43:38;;;;;;;4.33;1.90;;;38.90;20.50;;;;;;4988209;28;20462;-85
2022/08/04 12:46:07;;;;;;;5.33;2.17;;;38.90;20.40;;;;;;4991237;28;20474;-85
2022/08/04 12:48:36;;;;;;;4.10;2.10;;;38.90;20.90;;;;;;4990939;28;20440;-84
2022/08/04 12:51:03;;;;;;;10.23;2.93;;;38.80;21.40;;;;;;4992312;28;20886;-87
2022/08/04 12:53:32;;;;;;;3.90;1.87;;;38.80;21.50;;;;;;4989413;28;20449;-86
2022/08/04 12:55:59;;;;;;;4.67;1.93;;;38.90;22.10;;;;;;4992159;28;20593;-85
2022/08/04 12:58:29;;;;;;;6.50;1.97;;;38.70;21.50;;;;;;4971131;28;20438;-86
2022/08/04 13:01:18;;;;;;;6.47;2.30;;;38.30;21.30;;;;;;4989809;28;20465;-87
2022/08/04 13:03:57;;;;;;;4.53;1.90;;;38.20;21.00;;;;;;4992084;28;20851;-86
2022/08/04 13:06:32;;;;;;;8.10;2.30;;;38.00;20.70;;;;;;4984424;28;20496;-84
2022/08/04 13:09:15;;;;;;;5.77;2.30;;;37.90;20.70;;;;;;4993439;28;20465;-85
2022/08/04 13:11:46;;;;;;;6.20;3.10;;;37.80;21.30;;;;;;4971868;28;20573;-86
2022/08/04 13:14:13;;;;;;;8.70;2.70;;;37.70;22.00;;;;;;4990409;28;20508;-88
2022/08/04 13:16:40;;;;;;;3.77;1.93;;;37.40;22.10;;;;;;4991035;28;20445;-85
2022/08/04 13:19:07;;;;;;;7.10;3.10;;;37.20;22.40;;;;;;4988019;28;20437;-85
2022/08/04 13:21:33;;;;;;;4.03;2.30;;;37.00;23.00;;;;;;4985454;28;20459;-85
2022/08/04 13:24:05;;;;;;;5.07;2.17;;;36.80;23.40;;;;;;4992339;28;20453;-83
2022/08/04 13:26:33;;;;;;;7.07;2.13;;;36.60;23.20;;;;;;4992309;28;20468;-86
2022/08/04 13:29:04;;;;;;;6.80;2.57;;;36.20;22.90;;;;;;4996117;28;20457;-88
2022/08/04 13:31:31;;;;;;;5.73;2.47;;;35.90;22.50;;;;;;4994257;28;20471;-84
2022/08/04 13:34:06;;;;;;;3.83;1.80;;;35.40;23.10;;;;;;4998959;28;20444;-83
2022/08/04 13:36:33;;;;;;;5.63;2.27;;;35.10;23.00;;;;;;4995328;28;21302;-84
2022/08/04 13:39:07;;;;;;;7.27;2.50;;;34.90;23.50;;;;;;4995984;28;20530;-82
2022/08/04 13:41:37;;;;;;;6.63;2.50;;;34.60;34.80;;;;;;4991253;28;20468;-82